METAR Data
IDs: Format: Raw Decoded Include TAF

Data at: 2319 UTC 29 May 2020

KMKT 292256Z AUTO 01012KT 10SM CLR 19/07 A3014 RMK AO2 SLP208 T01890067